AirNav   SIMCOM
 
 1377 users online  

9Y2 East Gull Lake Airport
East Gull Lake, Minnesota, USA

GOING TO EAST GULL LAKE?


FAA INFORMATION EFFECTIVE 07 DECEMBER 2017

Location

FAA Identifier: 9Y2
Lat/Long: 46-23-01.8800N / 094-22-25.0100W
46-23.031333N / 094-22.416833W
46.3838556 / -94.3736139
(estimated)
Elevation: 1236 ft. / 376.7 m (surveyed)
Variation: 04E (1985)
From city: 8 miles NW of EAST GULL LAKE, MN
Time zone: UTC -6 (UTC -5 during Daylight Saving Time)
Zip code: 56401

Airport Operations

Airport use: Open to the public
Activation date: 03/1943
Control tower: no
ARTCC: MINNEAPOLIS CENTER
FSS: PRINCETON FLIGHT SERVICE STATION
NOTAMs facility: PNM (NOTAM-D service available)
Attendance: UNATNDD
Wind indicator: yes
Segmented circle: no

Airport Communications

CTAF: 122.9
WX ASOS at BRD (10 nm E): 126.775 (218-828-3314)
WX AWOS-3 at RYM (18 nm S): 142.95 or 360.775 (320-632-7500)
WX AWOS-3 at SAZ (18 nm W): 118.325 (218-894-3666)

Nearby radio navigation aids

VOR radial/distance  VOR name  Freq  Var
BRDr275/14.6BRAINERD VORTAC116.9003E

 
NDB name  Hdg/Dist  Freq  Var  ID
STAPLES089/17.925701ESAZ ... .- --..
RIPLEY353/18.340403EXCR -..- -.-. .-.
PINE RIVER176/20.633003EPWC .--. .-- -.-.
LITTLE FALLS354/26.135903ELXL .-.. -..- .-..
AITKIN251/30.539700EAIT .- .. -
LONGVILLE188/37.339203EXVG -..- ...- --.

Airport Services

Parking: tiedowns

Runway Information

Runway 13/31

Dimensions: 2618 x 160 ft. / 798 x 49 m
Surface: turf, in good condition
Runway edge markings: RY 13/31 NSTD MKGS; MKD WITH YELLOW CONES.
RUNWAY 13  RUNWAY 31
Latitude: 46-23.191500N46-22.871167N
Longitude: 094-22.625000W094-22.208667W
Elevation: 1230.0 ft.1230.0 ft.
Gradient: 0.2%0.2%
Traffic pattern: leftleft
Markings: NSTD
Runway end identifier lights: nono
Obstructions: 65 ft. tree, 1052 ft. from runway, 83 ft. right of centerline, 16:1 slope to clear25 ft. tree, 222 ft. from runway, 147 ft. left of centerline, 8:1 slope to clear

Airport Ownership and Management from official FAA records

Ownership: Publicly-owned
Owner: CITY OF EAST GULL LAKE
10790 SQUAW POINT RD
BRAINERD, MN 56401
Phone 218-828-9279
Manager: ROB MASON
CITY ADMINISTRATOR, , 10790 SQUAW POINT RD
BRAINERD, MN 56401
Phone 218-828-9279

Airport Operational Statistics

Aircraft operations: avg 83/month *
100% transient general aviation
* for 12-month period ending 30 April 2015

Additional Remarks

ARPT NOT PLOWED WINTER MONTHS.
WATCH FOR VEHICLES & PEDESTRIANS CROSSING RY.

Instrument Procedures

There are no published instrument procedures at 9Y2.

Some nearby airports with instrument procedures:

KBRD - Brainerd Lakes Regional Airport (10 nm E)
KRYM - Ray S Miller Army Airfield (18 nm S)
KSAZ - Staples Municipal Airport (18 nm W)
KPWC - Pine River Regional Airport (20 nm N)
KLXL - Little Falls/Morrison County Airport-Lindbergh Field (26 nm S)
 
Loc | Ops | Rwys | IFR | FBO | Links
Com | Nav | Svcs | Stats | Notes


 
Area around 9Y2 (East Gull Lake Airport)
 
Road maps at: MapQuest Bing Google
 
Aerial photo
WARNING: Photo may not be current or correct
Aerial photo of 9Y2 (East Gull Lake Airport)
Photo taken 29-Jul-2015
looking northeast.

Do you have a better or more recent aerial photo of East Gull Lake Airport that you would like to share? If so, please send us your photo.

 
Sectional chart

 
Airport distance calculator
Flying to East Gull Lake Airport? Find the distance to fly.

From to 9Y2

Sunrise and sunset
Times for 18-Dec-2017
 Local
(UTC-6)
 Zulu
(UTC)
Morning civil twilight07:2213:22
Sunrise07:5713:57
Sunset16:3122:31
Evening civil twilight17:0623:06

Current date and time
Zulu (UTC)  18-Dec-2017 19:30:31
Local (UTC-6)  18-Dec-2017 13:30:31
 
METAR
KBRD 
10nm E 
181853Z AUTO 20010KT 8SM OVC095 01/M03 A2961 RMK AO2 SLP042 T00061028
KRYM 
18nm S 
181856Z AUTO 20004KT 10SM BKN085 01/M02 A2963 RMK AO2 SLP052 T00051024 PWINO FZRANO $
KSAZ 
18nm W 
181915Z AUTO 22006KT 10SM SCT050 01/M03 A2959 RMK AO2
KPWC 
20nm N 
181916Z AUTO 21005KT 10SM CLR 00/M03 A2961 RMK AO2
TAF
KBRD 
10nm E 
181740Z 1818/1918 21009KT P6SM BKN100 FM190000 23010KT P6SM OVC025 FM190200 26009KT P6SM OVC020 FM190400 27009KT P6SM BKN030 FM190600 29009G17KT P6SM BKN050 FM191600 30015G25KT P6SM FEW130
NOTAMs
Click for the latest NOTAMs
NOTAMs are issued by the DoD/FAA and will open in a separate window not controlled by AirNav.

 

 
 

Would you like to see your business listed on this page?

 If your business provides an interesting product or service to pilots, flight crews, aircraft, or users of the East Gull Lake Airport, you should consider listing it here.  To start the listing process, click on the button below
 
Add a business
 

Other Pages about East Gull Lake Airport

PDF page(s) from the Minnesota Airport Directory
 
Update a link
 
Copyright © AirNav, LLC. All rights reserved. Privacy Policy  Contact